Time;durP1;ratioP1;P1;durP2;ratioP2;P2;SDS_P1;SDS_P2;PMS_P1;PMS_P2;Temp;Humidity;BMP_temperature;BMP_pressure;BME280_temperature;BME280_humidity;BME280_pressure;Samples;Min_cycle;Max_cycle;Signal;HPM_P1;HPM_P2
2022/12/19 00:01:49;;;;;;;74.50;33.20;;;-5.20;99.90;;;;;;4112958;28;20501;-64
2022/12/19 00:03:53;;;;;;;67.25;27.10;;;-5.20;99.90;;;;;;4113651;28;20042;-61
2022/12/19 00:05:54;;;;;;;77.10;28.67;;;-5.30;99.90;;;;;;4112494;28;20054;-61
2022/12/19 00:07:56;;;;;;;64.78;25.88;;;-5.30;99.90;;;;;;4112870;28;20050;-60
2022/12/19 00:09:57;;;;;;;64.25;26.52;;;-5.20;99.90;;;;;;4112862;28;20030;-58
2022/12/19 00:11:58;;;;;;;67.05;26.85;;;-5.20;99.90;;;;;;4113535;28;20081;-59
2022/12/19 00:13:59;;;;;;;68.20;25.95;;;-5.20;99.90;;;;;;4112111;28;20531;-61
2022/12/19 00:16:07;;;;;;;65.78;26.77;;;-5.10;99.90;;;;;;4112357;28;20039;-61
2022/12/19 00:18:08;;;;;;;71.15;27.85;;;-5.20;99.90;;;;;;4112962;28;20027;-62
2022/12/19 00:20:09;;;;;;;67.25;27.98;;;-5.30;99.90;;;;;;4112554;28;20475;-62
2022/12/19 00:22:11;;;;;;;59.13;27.30;;;-5.30;99.90;;;;;;4113396;28;20034;-63
2022/12/19 00:24:12;;;;;;;63.63;26.77;;;-5.40;99.90;;;;;;4111830;28;20043;-63
2022/12/19 00:26:22;;;;;;;68.97;26.92;;;-5.50;99.90;;;;;;4112696;28;20078;-61
2022/12/19 00:28:23;;;;;;;66.00;25.25;;;-5.50;99.90;;;;;;4112481;28;20034;-61
2022/12/19 00:30:24;;;;;;;63.22;25.08;;;-5.60;99.90;;;;;;4114127;28;20085;-61
2022/12/19 00:32:25;;;;;;;69.05;25.70;;;-5.60;99.90;;;;;;4111909;28;20126;-62
2022/12/19 00:34:27;;;;;;;61.95;25.08;;;-5.60;99.90;;;;;;4113470;28;20026;-62
2022/12/19 00:36:30;;;;;;;59.22;25.33;;;-5.60;99.90;;;;;;4111962;28;20026;-58
2022/12/19 00:38:32;;;;;;;66.18;25.73;;;-5.60;99.90;;;;;;4112834;28;20446;-59
2022/12/19 00:40:34;;;;;;;59.53;25.40;;;-5.60;99.90;;;;;;4111403;28;20031;-61
2022/12/19 00:42:35;;;;;;;67.93;25.27;;;-5.70;99.90;;;;;;4113442;28;20479;-67
2022/12/19 00:44:36;;;;;;;60.90;25.77;;;-5.70;99.90;;;;;;4112042;28;20026;-67
2022/12/19 00:46:37;;;;;;;60.28;23.75;;;-5.70;99.90;;;;;;4112383;28;20072;-67
2022/12/19 00:48:39;;;;;;;62.72;25.05;;;-5.70;99.90;;;;;;4112262;28;20050;-66
2022/12/19 00:50:40;;;;;;;66.13;26.40;;;-5.70;99.90;;;;;;4094988;29;20102;-68
2022/12/19 00:52:41;;;;;;;64.32;27.65;;;-5.70;99.90;;;;;;4112444;28;20046;-67
2022/12/19 00:54:42;;;;;;;61.53;25.02;;;-5.70;99.90;;;;;;4112506;28;20031;-57
2022/12/19 00:56:43;;;;;;;58.55;23.50;;;-5.70;99.90;;;;;;4112665;28;20047;-66
2022/12/19 00:58:44;;;;;;;60.47;23.45;;;-5.70;99.90;;;;;;4112115;28;20476;-67
2022/12/19 01:00:46;;;;;;;55.45;23.73;;;-5.80;99.90;;;;;;4113671;28;20077;-65
2022/12/19 01:02:47;;;;;;;60.72;23.30;;;-5.80;99.90;;;;;;4112109;28;20081;-67
2022/12/19 01:04:48;;;;;;;61.53;22.25;;;-5.80;99.90;;;;;;4113267;28;20027;-67
2022/12/19 01:06:50;;;;;;;55.63;20.45;;;-5.70;99.90;;;;;;4111334;28;20051;-67
2022/12/19 01:08:51;;;;;;;60.60;23.35;;;-5.70;99.90;;;;;;4113092;28;20094;-67
2022/12/19 01:10:52;;;;;;;62.47;22.13;;;-5.70;99.90;;;;;;4111822;28;20475;-67
2022/12/19 01:12:53;;;;;;;62.25;24.90;;;-5.70;99.90;;;;;;4112262;28;20043;-67
2022/12/19 01:14:55;;;;;;;60.05;23.08;;;-5.70;99.90;;;;;;4110779;28;20027;-66
2022/12/19 01:16:56;;;;;;;63.03;25.13;;;-5.70;99.90;;;;;;4112566;28;20034;-69
2022/12/19 01:18:58;;;;;;;65.45;23.20;;;-5.80;99.90;;;;;;4112327;28;20030;-62
2022/12/19 01:21:00;;;;;;;57.33;23.98;;;-5.70;99.90;;;;;;4094519;29;20043;-68
2022/12/19 01:23:01;;;;;;;60.50;24.75;;;-5.70;99.90;;;;;;4112074;28;20058;-67
2022/12/19 01:25:03;;;;;;;61.75;23.90;;;-5.70;99.90;;;;;;4111885;28;20035;-68
2022/12/19 01:27:04;;;;;;;66.07;25.27;;;-5.80;99.90;;;;;;4112848;28;20102;-64
2022/12/19 01:29:05;;;;;;;59.50;23.67;;;-5.80;99.90;;;;;;4111637;28;20101;-68
2022/12/19 01:31:06;;;;;;;63.80;23.40;;;-5.80;99.90;;;;;;4113438;28;20030;-67
2022/12/19 01:33:11;;;;;;;63.63;26.63;;;-5.80;99.90;;;;;;4111917;28;20023;-68
2022/12/19 01:35:12;;;;;;;57.35;22.83;;;-5.80;99.90;;;;;;4112983;28;20023;-67
2022/12/19 01:37:17;;;;;;;54.70;22.02;;;-5.80;99.90;;;;;;4111129;28;20075;-68
2022/12/19 01:39:18;;;;;;;64.57;24.33;;;-5.90;99.90;;;;;;4115692;28;20423;-69
2022/12/19 01:41:19;;;;;;;62.67;24.15;;;-5.90;99.90;;;;;;4114412;28;20467;-68
2022/12/19 01:43:22;;;;;;;67.95;26.77;;;-6.00;99.90;;;;;;4116231;28;20086;-68
2022/12/19 01:45:32;;;;;;;67.70;25.15;;;-6.10;99.90;;;;;;4114453;28;20042;-67
2022/12/19 01:47:46;;;;;;;67.88;25.58;;;-6.10;99.90;;;;;;4115447;28;20434;-67
2022/12/19 01:49:47;;;;;;;61.78;23.83;;;-6.10;99.90;;;;;;4114786;28;20031;-66
2022/12/19 01:51:52;;;;;;;58.97;24.75;;;-6.20;99.90;;;;;;4115955;28;20089;-67
2022/12/19 01:53:58;;;;;;;64.85;24.83;;;-6.20;99.90;;;;;;4114787;28;20030;-63
2022/12/19 01:56:01;;;;;;;63.60;24.38;;;-6.20;99.90;;;;;;4115316;28;20097;-67
2022/12/19 01:58:02;;;;;;;60.95;23.48;;;-6.20;99.90;;;;;;4114251;28;20101;-64
2022/12/19 02:00:08;;;;;;;66.57;25.33;;;-6.20;99.90;;;;;;4115179;28;20026;-69
2022/12/19 02:02:13;;;;;;;55.97;21.88;;;-6.20;99.90;;;;;;4114377;28;20094;-68
2022/12/19 02:04:15;;;;;;;54.20;22.02;;;-6.20;99.90;;;;;;4115357;28;20082;-67
2022/12/19 02:06:18;;;;;;;58.05;22.98;;;-6.20;99.90;;;;;;4114977;28;20039;-68
2022/12/19 02:08:21;;;;;;;65.43;23.30;;;-6.20;99.90;;;;;;4114487;28;20052;-68
2022/12/19 02:10:22;;;;;;;61.33;23.67;;;-6.20;99.90;;;;;;4114896;28;20105;-68
2022/12/19 02:12:28;;;;;;;61.78;23.33;;;-6.20;99.90;;;;;;4114248;28;20039;-64
2022/12/19 02:14:29;;;;;;;58.88;23.98;;;-6.30;99.90;;;;;;4114449;28;20549;-68
2022/12/19 02:16:39;;;;;;;62.88;24.63;;;-6.30;99.90;;;;;;4114759;28;20730;-68
2022/12/19 02:19:04;;;;;;;63.20;22.77;;;-6.30;99.90;;;;;;4115111;28;20101;-69
2022/12/19 02:21:23;;;;;;;55.95;22.98;;;-6.30;99.90;;;;;;4114475;28;20034;-67
2022/12/19 02:23:36;;;;;;;53.30;22.25;;;-6.30;99.90;;;;;;4115154;28;20041;-67
2022/12/19 02:26:14;;;;;;;56.78;23.02;;;-6.30;99.90;;;;;;4114385;28;20073;-68
2022/12/19 02:28:21;;;;;;;57.75;22.67;;;-6.20;99.90;;;;;;4114330;28;20047;-64
2022/12/19 02:30:46;;;;;;;61.90;23.27;;;-6.20;99.90;;;;;;4115363;28;20031;-67
2022/12/19 02:33:02;;;;;;;59.63;22.10;;;-6.20;99.90;;;;;;4114417;28;20031;-67
2022/12/19 02:35:06;;;;;;;61.80;22.92;;;-6.20;99.90;;;;;;4115538;28;20415;-68
2022/12/19 02:37:24;;;;;;;57.95;22.73;;;-6.30;99.90;;;;;;4112789;28;20047;-69
2022/12/19 02:39:44;;;;;;;59.75;23.13;;;-6.30;99.90;;;;;;4115344;28;20031;-65
2022/12/19 02:41:54;;;;;;;61.95;23.20;;;-6.40;99.90;;;;;;4096485;29;20066;-67
2022/12/19 02:43:57;;;;;;;52.30;21.33;;;-6.40;99.90;;;;;;4115137;28;20043;-64
2022/12/19 02:45:59;;;;;;;50.35;22.42;;;-6.40;99.90;;;;;;4113917;28;20527;-67
2022/12/19 02:48:02;;;;;;;55.95;21.85;;;-6.40;99.90;;;;;;4114890;28;20035;-69
2022/12/19 02:50:04;;;;;;;55.97;23.33;;;-6.40;99.90;;;;;;4113420;28;20035;-67
2022/12/19 02:52:28;;;;;;;56.85;21.30;;;-6.40;99.90;;;;;;4114420;28;20027;-68
2022/12/19 02:54:29;;;;;;;53.10;21.58;;;-6.30;99.90;;;;;;4104016;28;20052;-65
2022/12/19 02:56:39;;;;;;;50.83;21.73;;;-6.30;99.90;;;;;;4114042;28;20101;-68
2022/12/19 02:59:07;;;;;;;53.05;20.73;;;-6.20;99.90;;;;;;4113416;28;20047;-67
2022/12/19 03:01:29;;;;;;;58.95;22.85;;;-6.30;99.90;;;;;;4115133;28;20396;-67
2022/12/19 03:03:39;;;;;;;67.55;24.33;;;-6.20;99.90;;;;;;4113790;28;20098;-67
2022/12/19 03:05:46;;;;;;;61.95;24.38;;;-6.30;99.90;;;;;;4098793;29;20098;-67
2022/12/19 03:08:24;;;;;;;62.70;22.55;;;-6.30;99.90;;;;;;4097738;29;20023;-66
2022/12/19 03:10:31;;;;;;;59.83;23.10;;;-6.30;99.90;;;;;;4098971;29;20070;-67
2022/12/19 03:12:50;;;;;;;60.30;25.27;;;-6.30;99.90;;;;;;4096919;29;20443;-59
2022/12/19 03:14:52;;;;;;;56.78;22.63;;;-6.30;99.90;;;;;;4097750;29;20089;-59
2022/12/19 03:16:53;;;;;;;54.72;23.83;;;-6.20;99.90;;;;;;4097546;29;20075;-63
2022/12/19 03:18:56;;;;;;;60.10;23.80;;;-6.10;99.90;;;;;;4098424;29;20047;-60
2022/12/19 03:21:10;;;;;;;56.25;23.73;;;-6.10;99.90;;;;;;4097507;29;20039;-58
2022/12/19 03:23:12;;;;;;;61.25;21.70;;;-6.00;99.90;;;;;;4098325;29;20043;-63
2022/12/19 03:25:14;;;;;;;64.32;22.63;;;-5.90;99.90;;;;;;4097622;29;20420;-61
2022/12/19 03:27:36;;;;;;;62.60;23.90;;;-5.80;99.90;;;;;;4109596;28;20102;-58
2022/12/19 03:30:06;;;;;;;63.90;23.02;;;-5.70;99.90;;;;;;4113087;28;20082;-60
2022/12/19 03:32:12;;;;;;;54.53;21.73;;;-5.60;99.90;;;;;;4112580;28;20042;-65
2022/12/19 03:34:31;;;;;;;55.10;22.48;;;-5.60;99.90;;;;;;4112916;28;20082;-60
2022/12/19 03:36:39;;;;;;;52.15;22.08;;;-5.50;99.90;;;;;;4113703;28;20047;-59
2022/12/19 03:38:44;;;;;;;53.80;21.70;;;-5.50;99.90;;;;;;4095937;29;20035;-59
2022/12/19 03:40:47;;;;;;;63.05;23.02;;;-5.50;99.90;;;;;;4113614;28;20058;-56
2022/12/19 03:43:09;;;;;;;62.35;24.42;;;-5.60;99.90;;;;;;4112813;28;20611;-67
2022/12/19 03:45:14;;;;;;;66.95;25.98;;;-5.60;99.90;;;;;;4114202;28;20035;-65
2022/12/19 03:47:25;;;;;;;66.72;24.80;;;-5.60;99.90;;;;;;4113056;28;20089;-61
2022/12/19 03:49:26;;;;;;;58.27;24.13;;;-5.70;99.90;;;;;;4114228;28;20035;-58
2022/12/19 03:51:42;;;;;;;61.65;23.77;;;-5.70;99.90;;;;;;4112198;28;20281;-63
2022/12/19 03:54:07;;;;;;;63.25;23.42;;;-5.70;99.90;;;;;;4113703;28;20039;-59
2022/12/19 03:56:19;;;;;;;58.70;23.17;;;-5.80;99.90;;;;;;4112899;28;20434;-63
2022/12/19 03:58:29;;;;;;;60.05;23.15;;;-5.80;99.90;;;;;;4113798;28;20030;-59
2022/12/19 04:00:35;;;;;;;55.95;22.80;;;-5.80;99.90;;;;;;4112455;28;20031;-59
2022/12/19 04:02:38;;;;;;;59.08;21.73;;;-5.80;99.90;;;;;;4112556;28;20121;-56
2022/12/19 04:04:55;;;;;;;67.05;24.33;;;-5.70;99.90;;;;;;4113196;28;20114;-63
2022/12/19 04:06:57;;;;;;;55.88;22.00;;;-5.70;99.90;;;;;;4113626;28;20042;-61
2022/12/19 04:08:59;;;;;;;55.00;21.15;;;-5.60;99.90;;;;;;4112603;28;20042;-58
2022/12/19 04:11:05;;;;;;;59.70;22.92;;;-5.70;99.90;;;;;;4113949;28;20034;-62
2022/12/19 04:13:14;;;;;;;58.85;21.67;;;-5.60;99.90;;;;;;4112760;28;20030;-65
2022/12/19 04:15:16;;;;;;;57.35;22.02;;;-5.60;99.90;;;;;;4113675;28;20074;-66
2022/12/19 04:17:41;;;;;;;53.30;20.98;;;-5.50;99.90;;;;;;4112293;28;20034;-66
2022/12/19 04:20:00;;;;;;;51.90;20.23;;;-5.50;99.90;;;;;;4113709;28;20479;-63
2022/12/19 04:22:09;;;;;;;54.63;19.77;;;-5.40;99.90;;;;;;4112316;28;20867;-65
2022/12/19 04:24:16;;;;;;;54.55;22.35;;;-5.30;99.90;;;;;;4113653;28;20046;-67
2022/12/19 04:26:20;;;;;;;49.42;21.38;;;-5.20;99.90;;;;;;4112078;28;20070;-65
2022/12/19 04:28:26;;;;;;;54.35;20.88;;;-5.20;99.90;;;;;;4113477;28;20427;-66
2022/12/19 04:30:27;;;;;;;53.58;20.90;;;-5.20;99.90;;;;;;4112410;28;20427;-65
2022/12/19 04:32:31;;;;;;;55.42;21.67;;;-5.30;99.90;;;;;;4112510;28;20427;-60
2022/12/19 04:34:33;;;;;;;59.42;22.40;;;-5.40;99.90;;;;;;4112306;28;20035;-64
2022/12/19 04:36:34;;;;;;;52.67;22.23;;;-5.40;99.90;;;;;;4113108;28;20098;-66
2022/12/19 04:38:35;;;;;;;58.72;23.25;;;-5.40;99.90;;;;;;4112063;28;20550;-67
2022/12/19 04:40:36;;;;;;;64.13;24.08;;;-5.30;99.90;;;;;;4112712;28;20111;-58
2022/12/19 04:42:37;;;;;;;60.70;23.67;;;-5.30;99.90;;;;;;4111539;28;20042;-67
2022/12/19 04:44:38;;;;;;;60.53;24.00;;;-5.30;99.90;;;;;;4111827;28;20062;-69
2022/12/19 04:46:40;;;;;;;65.35;25.08;;;-5.40;99.90;;;;;;4112273;28;20035;-67
2022/12/19 04:48:41;;;;;;;65.63;23.65;;;-5.40;99.90;;;;;;4112543;28;20093;-69
2022/12/19 04:50:42;;;;;;;59.38;23.88;;;-5.30;99.90;;;;;;4101894;28;20440;-67
2022/12/19 04:52:44;;;;;;;57.95;23.00;;;-5.30;99.90;;;;;;4105467;28;20459;-67
2022/12/19 04:54:45;;;;;;;54.05;23.27;;;-5.30;99.90;;;;;;4112870;28;20052;-58
2022/12/19 04:56:46;;;;;;;55.65;21.80;;;-5.30;99.90;;;;;;4111299;28;20054;-67
2022/12/19 04:58:47;;;;;;;59.78;22.17;;;-5.30;99.90;;;;;;4111887;28;20090;-68
2022/12/19 05:00:48;;;;;;;61.20;23.25;;;-5.20;99.90;;;;;;4111616;28;20034;-61
2022/12/19 05:02:49;;;;;;;59.47;24.00;;;-5.10;99.90;;;;;;4113010;28;20467;-69
2022/12/19 05:04:51;;;;;;;65.28;23.60;;;-5.00;99.90;;;;;;4111927;28;20035;-70
2022/12/19 05:06:52;;;;;;;60.88;23.30;;;-4.90;99.90;;;;;;4112238;28;20050;-69
2022/12/19 05:08:53;;;;;;;58.80;23.55;;;-4.90;99.90;;;;;;4110801;28;20127;-65
2022/12/19 05:10:58;;;;;;;69.22;26.42;;;-4.90;99.90;;;;;;4112611;28;20035;-67
2022/12/19 05:12:59;;;;;;;64.70;25.80;;;-4.80;99.90;;;;;;4113536;28;20082;-75
2022/12/19 05:15:00;;;;;;;66.22;24.27;;;-4.80;99.90;;;;;;4117796;28;20476;-68
2022/12/19 05:17:02;;;;;;;55.63;24.10;;;-4.80;99.90;;;;;;4116654;28;20023;-69
2022/12/19 05:19:03;;;;;;;65.82;24.65;;;-4.70;99.90;;;;;;4117201;28;20030;-66
2022/12/19 05:21:05;;;;;;;63.55;25.58;;;-4.70;99.90;;;;;;4117023;28;20034;-68
2022/12/19 05:23:06;;;;;;;56.22;22.83;;;-4.70;99.90;;;;;;4116917;28;20042;-69
2022/12/19 05:25:08;;;;;;;70.57;24.70;;;-4.70;99.90;;;;;;4117166;28;20089;-69
2022/12/19 05:27:09;;;;;;;53.13;20.65;;;-4.70;99.90;;;;;;4116355;28;20093;-67
2022/12/19 05:29:10;;;;;;;55.30;21.17;;;-4.70;99.90;;;;;;4101608;28;20050;-66
2022/12/19 05:31:17;;;;;;;53.40;20.77;;;-4.70;99.90;;;;;;4116752;28;20034;-68
2022/12/19 05:33:18;;;;;;;57.90;21.95;;;-4.70;99.90;;;;;;4113179;28;20081;-72
2022/12/19 05:35:19;;;;;;;58.75;22.02;;;-4.70;99.90;;;;;;4115607;28;20039;-72
2022/12/19 05:37:20;;;;;;;54.67;21.42;;;-4.70;99.90;;;;;;4117757;28;20105;-70
2022/12/19 05:39:21;;;;;;;45.95;20.45;;;-4.70;99.90;;;;;;4116690;28;20487;-65
2022/12/19 05:41:22;;;;;;;51.40;22.55;;;-4.70;99.90;;;;;;4115861;28;20089;-67
2022/12/19 05:43:23;;;;;;;57.50;21.65;;;-4.70;99.90;;;;;;4114983;28;20126;-65
2022/12/19 05:45:24;;;;;;;59.45;21.55;;;-4.70;99.90;;;;;;4116853;28;20082;-64
2022/12/19 05:47:26;;;;;;;59.80;23.33;;;-4.70;99.90;;;;;;4116270;28;20368;-65
2022/12/19 05:49:27;;;;;;;58.95;23.23;;;-4.70;99.90;;;;;;4117391;28;20038;-68
2022/12/19 05:51:28;;;;;;;59.70;22.05;;;-4.70;99.90;;;;;;4115668;28;20090;-69
2022/12/19 05:53:30;;;;;;;63.13;23.30;;;-4.70;99.90;;;;;;4116294;28;20074;-68
2022/12/19 05:55:31;;;;;;;54.70;21.70;;;-4.70;99.90;;;;;;4117278;28;20538;-67
2022/12/19 05:57:33;;;;;;;57.55;21.30;;;-4.70;99.90;;;;;;4116731;28;20034;-67
2022/12/19 05:59:34;;;;;;;57.55;22.15;;;-4.70;99.90;;;;;;4117229;28;20113;-67
2022/12/19 06:01:35;;;;;;;60.10;23.27;;;-4.70;99.90;;;;;;4116028;28;20039;-67
2022/12/19 06:03:36;;;;;;;48.78;20.70;;;-4.70;99.90;;;;;;4117663;28;20027;-69
2022/12/19 06:05:38;;;;;;;54.42;20.67;;;-4.70;99.90;;;;;;4116526;28;20380;-64
2022/12/19 06:07:39;;;;;;;50.40;21.35;;;-4.80;99.90;;;;;;4116869;28;20098;-68
2022/12/19 06:09:40;;;;;;;50.22;21.05;;;-4.80;99.90;;;;;;4116678;28;20467;-66
2022/12/19 06:11:41;;;;;;;52.80;22.00;;;-4.80;99.90;;;;;;4116617;28;20094;-68
2022/12/19 06:13:42;;;;;;;59.13;20.80;;;-4.80;99.90;;;;;;4116337;28;20042;-67
2022/12/19 06:15:43;;;;;;;68.80;25.80;;;-4.80;99.90;;;;;;4117762;28;20081;-64
2022/12/19 06:17:44;;;;;;;59.00;23.58;;;-4.80;99.90;;;;;;4116439;28;20085;-68
2022/12/19 06:19:46;;;;;;;59.20;25.33;;;-4.80;99.90;;;;;;4116349;28;20396;-68
2022/12/19 06:21:47;;;;;;;60.85;24.58;;;-4.90;99.90;;;;;;4115748;28;20085;-63
2022/12/19 06:23:48;;;;;;;64.03;25.02;;;-4.90;99.90;;;;;;4116694;28;20027;-61
2022/12/19 06:25:49;;;;;;;60.63;25.15;;;-4.80;99.90;;;;;;4113458;28;20026;-67
2022/12/19 06:27:50;;;;;;;73.63;26.60;;;-4.80;99.90;;;;;;4113842;28;20074;-63
2022/12/19 06:29:52;;;;;;;69.45;25.85;;;-4.80;99.90;;;;;;4114812;28;20035;-66
2022/12/19 06:31:53;;;;;;;63.45;24.02;;;-4.80;99.90;;;;;;4113437;28;20117;-67
2022/12/19 06:33:54;;;;;;;82.53;26.67;;;-4.80;99.90;;;;;;4113976;28;20106;-68
2022/12/19 06:36:00;;;;;;;70.30;27.52;;;-4.90;99.90;;;;;;4113513;28;20026;-63
2022/12/19 06:38:01;;;;;;;75.00;28.13;;;-4.90;99.90;;;;;;4114639;28;20564;-64
2022/12/19 06:40:03;;;;;;;80.15;30.45;;;-4.90;99.90;;;;;;4113495;28;20047;-64
2022/12/19 06:42:22;;;;;;;76.28;31.00;;;-4.90;99.90;;;;;;4113828;28;20046;-68
2022/12/19 06:44:23;;;;;;;77.47;30.67;;;-4.80;99.90;;;;;;4112587;28;20094;-66
2022/12/19 06:46:24;;;;;;;69.90;27.13;;;-4.80;99.90;;;;;;4114664;28;20097;-62
2022/12/19 06:48:27;;;;;;;70.07;26.60;;;-4.80;99.90;;;;;;4113324;28;20030;-62
2022/12/19 06:50:28;;;;;;;67.75;28.52;;;-4.70;99.90;;;;;;4114615;28;20043;-66
2022/12/19 06:52:29;;;;;;;74.75;26.88;;;-4.70;99.90;;;;;;4112418;28;20086;-65
2022/12/19 06:54:30;;;;;;;76.07;29.00;;;-4.70;99.90;;;;;;4114651;28;20039;-65
2022/12/19 06:56:39;;;;;;;84.85;31.60;;;-4.60;99.90;;;;;;4112487;28;20611;-66
2022/12/19 06:58:40;;;;;;;75.18;30.60;;;-4.60;99.90;;;;;;4113562;28;20447;-68
2022/12/19 07:00:41;;;;;;;75.40;29.77;;;-4.60;99.90;;;;;;4113353;28;20443;-66
2022/12/19 07:02:45;;;;;;;83.72;30.52;;;-4.60;99.90;;;;;;4113176;28;20189;-65
2022/12/19 07:04:50;;;;;;;72.90;30.83;;;-4.40;99.90;;;;;;4113673;28;20035;-64
2022/12/19 07:06:51;;;;;;;79.50;30.42;;;-4.30;99.90;;;;;;4113197;28;20467;-66
2022/12/19 07:08:52;;;;;;;79.30;28.55;;;-4.10;99.90;;;;;;4113692;28;20034;-65
2022/12/19 07:10:54;;;;;;;82.70;30.55;;;-3.90;99.90;;;;;;4113021;28;20842;-67
2022/12/19 07:12:55;;;;;;;76.68;29.33;;;-3.70;99.90;;;;;;4114341;28;20699;-66
2022/12/19 07:14:56;;;;;;;75.17;27.43;;;-3.60;99.90;;;;;;4113285;28;20030;-63
2022/12/19 07:16:59;;;;;;;64.17;26.47;;;-3.50;99.90;;;;;;4114174;28;20285;-60
2022/12/19 07:19:00;;;;;;;67.37;24.97;;;-3.40;99.90;;;;;;4113088;28;20386;-63
2022/12/19 07:21:02;;;;;;;63.53;23.40;;;-3.40;99.90;;;;;;4114122;28;20309;-64
2022/12/19 07:23:04;;;;;;;59.33;23.73;;;-3.50;99.90;;;;;;4112986;28;20324;-61
2022/12/19 07:25:06;;;;;;;63.90;25.57;;;-3.60;99.90;;;;;;4114016;28;20296;-66
2022/12/19 07:27:07;;;;;;;67.53;26.33;;;-3.70;99.90;;;;;;4111974;28;20304;-63
2022/12/19 07:29:09;;;;;;;63.17;26.27;;;-3.80;99.90;;;;;;4114195;28;20280;-65
2022/12/19 07:31:10;;;;;;;53.83;21.27;;;-3.70;99.90;;;;;;4113354;28;20795;-62
2022/12/19 07:33:12;;;;;;;58.87;22.17;;;-3.70;99.90;;;;;;4113619;28;20344;-68
2022/12/19 07:35:13;;;;;;;55.47;23.13;;;-3.90;99.90;;;;;;4113274;28;20792;-59
2022/12/19 07:37:14;;;;;;;51.40;20.87;;;-3.80;99.90;;;;;;4113081;28;20257;-59
2022/12/19 07:39:15;;;;;;;53.10;20.83;;;-3.80;99.90;;;;;;4113673;28;20315;-67
2022/12/19 07:41:17;;;;;;;60.13;19.70;;;-3.80;99.90;;;;;;4112878;28;20726;-69
2022/12/19 07:43:18;;;;;;;53.90;20.33;;;-3.90;99.90;;;;;;4112951;28;20265;-63
2022/12/19 07:45:19;;;;;;;48.37;18.13;;;-3.90;99.90;;;;;;4111669;28;20471;-64
2022/12/19 07:47:20;;;;;;;47.40;18.60;;;-3.90;99.90;;;;;;4113828;28;20404;-66
2022/12/19 07:49:21;;;;;;;44.83;17.80;;;-3.90;99.90;;;;;;4111478;28;20301;-67
2022/12/19 07:51:23;;;;;;;45.75;17.25;;;-3.90;99.90;;;;;;4113665;28;21293;-67
2022/12/19 07:53:24;;;;;;;46.03;17.53;;;-3.80;99.90;;;;;;4112444;28;20093;-67
2022/12/19 07:55:26;;;;;;;43.63;16.80;;;-3.80;99.90;;;;;;4113573;28;20323;-67
2022/12/19 07:57:27;;;;;;;47.27;18.60;;;-3.80;99.90;;;;;;4112534;28;20117;-67
2022/12/19 07:59:28;;;;;;;42.88;16.77;;;-3.80;99.90;;;;;;4113033;28;20296;-69
2022/12/19 08:01:29;;;;;;;46.50;16.20;;;-3.70;99.90;;;;;;4112832;28;20129;-65
2022/12/19 08:03:30;;;;;;;38.25;16.90;;;-3.60;99.90;;;;;;4113204;28;20268;-67
2022/12/19 08:05:33;;;;;;;36.00;15.07;;;-3.40;99.90;;;;;;4112155;28;20047;-66
2022/12/19 08:07:34;;;;;;;44.67;18.57;;;-3.30;99.90;;;;;;4112910;28;20280;-67
2022/12/19 08:09:35;;;;;;;38.03;17.10;;;-3.10;99.90;;;;;;4112908;28;20812;-67
2022/12/19 08:11:36;;;;;;;46.73;18.10;;;-3.00;99.90;;;;;;4112333;28;20319;-66
2022/12/19 08:13:38;;;;;;;48.83;20.90;;;-2.80;99.90;;;;;;4113083;28;20261;-65
2022/12/19 08:15:39;;;;;;;51.73;19.50;;;-2.60;99.90;;;;;;4112023;28;20323;-67
2022/12/19 08:17:40;;;;;;;49.50;18.17;;;-2.50;99.90;;;;;;4113083;28;20268;-67
2022/12/19 08:19:41;;;;;;;52.47;17.87;;;-2.40;99.90;;;;;;4110983;28;20777;-66
2022/12/19 08:21:42;;;;;;;41.40;18.17;;;-2.30;99.90;;;;;;4112986;28;20273;-68
2022/12/19 08:23:44;;;;;;;43.40;15.40;;;-2.10;99.90;;;;;;4112081;28;20340;-67
2022/12/19 08:25:46;;;;;;;35.97;15.77;;;-2.10;99.90;;;;;;4112902;28;20319;-68
2022/12/19 08:27:47;;;;;;;39.30;16.03;;;-2.00;99.90;;;;;;4111912;28;20765;-69
2022/12/19 08:29:48;;;;;;;37.97;18.40;;;-2.00;99.90;;;;;;4112852;28;20277;-66
2022/12/19 08:31:49;;;;;;;37.93;17.03;;;-2.00;99.90;;;;;;4112122;28;20603;-67
2022/12/19 08:33:52;;;;;;;38.70;16.43;;;-1.90;99.90;;;;;;4112635;28;21270;-67
2022/12/19 08:35:53;;;;;;;37.53;15.80;;;-1.90;99.90;;;;;;4112086;28;20312;-68
2022/12/19 08:37:55;;;;;;;35.93;15.93;;;-2.10;99.90;;;;;;4112410;28;20261;-65
2022/12/19 08:39:56;;;;;;;37.50;15.50;;;-2.10;99.90;;;;;;4112517;28;20277;-68
2022/12/19 08:41:57;;;;;;;33.67;14.37;;;-2.00;99.90;;;;;;4112332;28;20606;-68
2022/12/19 08:43:59;;;;;;;37.20;14.43;;;-1.90;99.90;;;;;;4112888;28;20327;-66
2022/12/19 08:46:01;;;;;;;34.47;14.37;;;-1.80;99.90;;;;;;4111883;28;20269;-68
2022/12/19 08:48:02;;;;;;;38.27;15.03;;;-1.80;99.90;;;;;;4112180;28;20328;-69
2022/12/19 08:50:03;;;;;;;32.03;15.27;;;-1.80;99.90;;;;;;4111598;28;20417;-68
2022/12/19 08:52:04;;;;;;;41.83;16.80;;;-1.90;99.90;;;;;;4112784;28;20327;-69
2022/12/19 08:54:06;;;;;;;30.93;14.50;;;-1.90;99.90;;;;;;4111678;28;20327;-68
2022/12/19 08:56:09;;;;;;;35.77;15.17;;;-1.90;99.90;;;;;;4112083;28;20367;-64
2022/12/19 08:58:10;;;;;;;39.07;15.17;;;-1.80;99.90;;;;;;4111502;28;20318;-70
2022/12/19 09:00:12;;;;;;;44.67;17.10;;;-1.70;99.90;;;;;;4112563;28;20273;-67
2022/12/19 09:02:14;;;;;;;34.03;15.97;;;-1.80;99.90;;;;;;4111582;28;20399;-68
2022/12/19 09:04:16;;;;;;;35.90;15.53;;;-1.80;99.90;;;;;;4112368;28;20422;-68
2022/12/19 09:06:17;;;;;;;37.60;15.30;;;-1.80;99.90;;;;;;4110135;28;20322;-68
2022/12/19 09:08:18;;;;;;;39.50;15.37;;;-1.90;99.90;;;;;;4111224;28;20320;-69
2022/12/19 09:10:19;;;;;;;38.00;15.77;;;-1.90;99.90;;;;;;4094823;28;20298;-66
2022/12/19 09:12:21;;;;;;;36.80;14.40;;;-1.90;99.90;;;;;;4112176;28;20324;-68
2022/12/19 09:14:22;;;;;;;30.37;14.00;;;-1.90;99.90;;;;;;4111154;28;20721;-68
2022/12/19 09:16:25;;;;;;;33.10;15.17;;;-1.80;99.90;;;;;;4111760;28;20324;-65
2022/12/19 09:18:27;;;;;;;35.27;14.47;;;-1.70;99.90;;;;;;4112127;28;20686;-68
2022/12/19 09:20:28;;;;;;;37.70;16.70;;;-1.50;99.90;;;;;;4111511;28;20278;-67
2022/12/19 09:22:29;;;;;;;31.33;13.53;;;-1.40;99.90;;;;;;4112445;28;20269;-68
2022/12/19 09:24:30;;;;;;;36.67;15.17;;;-1.30;99.90;;;;;;4110991;28;20273;-65
2022/12/19 09:26:31;;;;;;;43.93;17.53;;;-1.10;99.90;;;;;;4112399;28;20355;-68
2022/12/19 09:28:34;;;;;;;34.97;14.70;;;-1.10;99.90;;;;;;4111591;28;20288;-66
2022/12/19 09:30:35;;;;;;;40.73;16.33;;;-1.10;99.90;;;;;;4111942;28;20293;-69
2022/12/19 09:32:36;;;;;;;34.47;15.10;;;-1.10;99.90;;;;;;4111991;28;20281;-68
2022/12/19 09:34:37;;;;;;;35.03;15.37;;;-1.10;99.90;;;;;;4112631;28;20268;-67
2022/12/19 09:36:39;;;;;;;37.37;15.07;;;-1.00;99.90;;;;;;4110548;28;20269;-66
2022/12/19 09:38:41;;;;;;;44.70;17.77;;;-0.90;99.90;;;;;;4112241;28;20276;-69
2022/12/19 09:40:57;;;;;;;35.13;16.77;;;-0.90;99.90;;;;;;4111849;28;20269;-69
2022/12/19 09:43:26;;;;;;;37.93;16.20;;;-0.90;99.90;;;;;;4112160;28;20741;-67
2022/12/19 09:45:48;;;;;;;37.07;15.57;;;-0.90;99.90;;;;;;4110290;28;20261;-64
2022/12/19 09:47:54;;;;;;;40.13;17.43;;;-1.00;99.90;;;;;;4112317;28;21433;-67
2022/12/19 09:49:57;;;;;;;37.00;15.07;;;-1.00;99.90;;;;;;4111104;28;20281;-65
2022/12/19 09:52:02;;;;;;;33.97;14.10;;;-0.90;99.90;;;;;;4111049;28;20332;-65
2022/12/19 09:54:25;;;;;;;37.00;16.40;;;-0.90;99.90;;;;;;4111169;28;20257;-65
2022/12/19 09:56:31;;;;;;;52.20;19.50;;;-1.10;99.90;;;;;;4111450;28;20595;-60
2022/12/19 09:58:40;;;;;;;45.80;18.10;;;-1.40;99.90;;;;;;4109860;28;20312;-64
2022/12/19 10:00:50;;;;;;;42.57;17.87;;;-1.60;99.90;;;;;;4113208;28;20710;-62
2022/12/19 10:03:10;;;;;;;;;;;-1.60;99.90;;;;;;4114109;28;20261;-64
2022/12/19 10:05:15;;;;;;;47.63;18.33;;;-1.60;99.90;;;;;;4114965;28;19913;-62
2022/12/19 10:07:20;;;;;;;38.97;16.50;;;-1.50;99.90;;;;;;4113812;28;20288;-61
2022/12/19 10:09:25;;;;;;;44.17;17.43;;;-1.60;99.90;;;;;;4115009;28;20335;-61
2022/12/19 10:11:51;;;;;;;41.77;18.00;;;-1.70;99.90;;;;;;4113736;28;20319;-65
2022/12/19 10:14:13;;;;;;;44.17;17.87;;;-1.70;99.90;;;;;;4115081;28;20272;-68
2022/12/19 10:16:26;;;;;;;50.67;18.77;;;-1.70;99.90;;;;;;4113974;28;20277;-67
2022/12/19 10:18:52;;;;;;;46.30;18.00;;;-1.80;99.90;;;;;;4115199;28;20280;-60
2022/12/19 10:21:07;;;;;;;49.30;18.33;;;-1.80;99.90;;;;;;4106654;28;20875;-64
2022/12/19 10:23:48;;;;;;;48.93;19.43;;;-1.80;99.90;;;;;;4115147;28;20688;-63
2022/12/19 10:26:01;;;;;;;47.58;17.58;;;-1.70;99.90;;;;;;4113481;28;20273;-62
2022/12/19 10:28:17;;;;;;;47.50;18.13;;;-1.70;99.90;;;;;;4113652;28;20077;-62
2022/12/19 10:30:20;;;;;;;45.33;17.93;;;-1.80;99.90;;;;;;4114184;28;20293;-66
2022/12/19 10:32:48;;;;;;;42.67;17.50;;;-1.70;99.90;;;;;;4113812;28;20268;-64
2022/12/19 10:34:51;;;;;;;45.83;17.97;;;-1.80;99.90;;;;;;4113990;28;20754;-69